Belgium, New York
Current Conditions -  °F | °C
As of 11:54 AM on Tuesday 21 Oct 2014 (Local Time) from KFZY Reporting Station
Light Rain Light Rain  
Wind Chill: 52°   Ceiling: 2300
Heat Index: 52°   Visibility: 10mi
Dew Point: 47°   Wind: 6mph
Humidity: 83%   Direction: NA
Pressure: 29.87"   Gusts: NA
Location:  43.1825°N, 76.3664°W
Report Text: KFZY 211554Z AUTO VRB05KT 10SM -RA FEW009 BKN023 OVC060 11/08 A2987 RMK AO2 RAB41 SLP115 P0000 T01110083
Loading
Personal Weather Stations






























Interactive Weather Map New forecast layout! Learn more

10-Day Weather Forecast

Advertisements
Track Severe Weather on mobile